createdAt,value
2022-10-05T00:00:06.142Z,53
2022-10-05T00:00:34.400Z,53
2022-10-05T00:01:06.502Z,53
2022-10-05T00:01:38.267Z,53
2022-10-05T00:01:54.458Z,53
2022-10-05T00:02:26.349Z,53
2022-10-05T00:03:10.175Z,53
2022-10-05T00:03:42.234Z,53
2022-10-05T00:04:14.257Z,53
2022-10-05T00:04:46.327Z,53
2022-10-05T00:05:18.422Z,53
2022-10-05T00:05:50.157Z,53
2022-10-05T00:06:21.929Z,53
2022-10-05T00:06:54.194Z,53
2022-10-05T00:07:26.390Z,53
2022-10-05T00:07:58.045Z,53
2022-10-05T00:08:29.832Z,53
2022-10-05T00:09:02.834Z,53
2022-10-05T00:09:33.875Z,53
2022-10-05T00:10:06.371Z,53
2022-10-05T00:10:37.789Z,53
2022-10-05T00:11:09.733Z,53
2022-10-05T00:11:41.854Z,53
2022-10-05T00:12:13.910Z,53
2022-10-05T00:12:45.574Z,53
2022-10-05T00:13:17.947Z,53
2022-10-05T00:13:49.713Z,53
2022-10-05T00:14:21.673Z,53
2022-10-05T00:14:53.771Z,53
2022-10-05T00:15:10.644Z,53
2022-10-05T00:15:53.617Z,53
2022-10-05T00:16:25.703Z,53
2022-10-05T00:16:57.763Z,53
2022-10-05T00:17:29.482Z,53
2022-10-05T00:18:02.213Z,53
2022-10-05T00:18:33.494Z,53
2022-10-05T00:19:05.990Z,53
2022-10-05T00:19:37.355Z,53
2022-10-05T00:19:53.623Z,53
2022-10-05T00:20:25.617Z,53
2022-10-05T00:20:41.483Z,53
2022-10-05T00:21:13.406Z,53
2022-10-05T00:21:45.263Z,53
2022-10-05T00:22:17.423Z,53
2022-10-05T00:22:49.239Z,53
2022-10-05T00:23:21.396Z,53
2022-10-05T00:23:53.234Z,53
2022-10-05T00:24:09.246Z,53
2022-10-05T00:24:41.240Z,53
2022-10-05T00:25:25.723Z,53
2022-10-05T00:25:57.361Z,53
2022-10-05T00:26:29.043Z,53
2022-10-05T00:27:01.273Z,53
2022-10-05T00:27:33.108Z,53
2022-10-05T00:28:05.634Z,53
2022-10-05T00:28:37.050Z,53
2022-10-05T00:29:09.065Z,53
2022-10-05T00:29:41.138Z,53
2022-10-05T00:30:13.748Z,53
2022-10-05T00:30:45.129Z,53
2022-10-05T00:31:17.161Z,53
2022-10-05T00:31:49.073Z,53
2022-10-05T00:32:21.155Z,53
2022-10-05T00:32:57.291Z,53
2022-10-05T00:33:09.021Z,53
2022-10-05T00:33:53.363Z,53
2022-10-05T00:34:24.934Z,53
2022-10-05T00:34:56.925Z,53
2022-10-05T00:35:28.965Z,53
2022-10-05T00:36:00.831Z,53
2022-10-05T00:36:32.862Z,53
2022-10-05T00:37:05.104Z,53
2022-10-05T00:37:36.566Z,53
2022-10-05T00:38:08.689Z,53
2022-10-05T00:38:40.667Z,53
2022-10-05T00:39:12.644Z,53
2022-10-05T00:39:44.633Z,53
2022-10-05T00:40:16.948Z,53
2022-10-05T00:40:48.689Z,53
2022-10-05T00:41:20.642Z,53
2022-10-05T00:41:52.414Z,53
2022-10-05T00:42:08.615Z,53
2022-10-05T00:42:40.234Z,53
2022-10-05T00:43:24.682Z,53
2022-10-05T00:43:56.555Z,53
2022-10-05T00:44:28.230Z,53
2022-10-05T00:45:01.261Z,53
2022-10-05T00:45:32.558Z,53
2022-10-05T00:46:04.746Z,53
2022-10-05T00:46:36.422Z,53
2022-10-05T00:46:52.343Z,53
2022-10-05T00:47:36.378Z,53
2022-10-05T00:48:08.422Z,53
2022-10-05T00:48:40.059Z,53
2022-10-05T00:49:12.313Z,53
2022-10-05T00:49:44.363Z,53
2022-10-05T00:50:16.494Z,53
2022-10-05T00:50:48.091Z,53
2022-10-05T00:51:20.070Z,53
2022-10-05T00:51:52.091Z,53
2022-10-05T00:52:24.323Z,53
2022-10-05T00:52:56.373Z,53
2022-10-05T00:53:27.965Z,53
2022-10-05T00:54:00.054Z,53
2022-10-05T00:54:32.082Z,53
2022-10-05T00:55:04.781Z,53
2022-10-05T00:55:36.000Z,53
2022-10-05T00:56:07.869Z,53
2022-10-05T00:56:39.876Z,53
2022-10-05T00:57:12.134Z,53
2022-10-05T00:57:43.968Z,53
2022-10-05T00:58:15.988Z,53
2022-10-05T00:58:47.880Z,53
2022-10-05T00:59:19.870Z,53
2022-10-05T00:59:51.835Z,53
2022-10-05T01:00:08.781Z,53
2022-10-05T01:00:39.654Z,53
2022-10-05T01:01:23.898Z,53
2022-10-05T01:01:55.938Z,53
2022-10-05T01:02:27.740Z,53
2022-10-05T01:02:59.645Z,53
2022-10-05T01:03:31.575Z,53
2022-10-05T01:04:04.171Z,53
2022-10-05T01:04:35.590Z,53
2022-10-05T01:04:51.706Z,53
2022-10-05T01:05:36.114Z,53
2022-10-05T01:06:07.597Z,53
2022-10-05T01:06:39.670Z,53
2022-10-05T01:07:11.462Z,53
2022-10-05T01:07:43.398Z,53
2022-10-05T01:08:15.705Z,53
2022-10-05T01:08:47.391Z,53
2022-10-05T01:09:19.299Z,53
2022-10-05T01:09:51.499Z,53
2022-10-05T01:10:23.781Z,53
2022-10-05T01:10:55.342Z,53
2022-10-05T01:11:27.473Z,53
2022-10-05T01:11:59.276Z,53
2022-10-05T01:12:31.254Z,53
2022-10-05T01:13:04.096Z,53
2022-10-05T01:13:35.252Z,53
2022-10-05T01:13:51.471Z,53
2022-10-05T01:14:23.115Z,53
2022-10-05T01:14:39.288Z,53
2022-10-05T01:15:12.154Z,53
2022-10-05T01:15:43.140Z,53
2022-10-05T01:16:16.863Z,53
2022-10-05T01:16:47.655Z,53
2022-10-05T01:17:19.060Z,53
2022-10-05T01:17:51.055Z,53
2022-10-05T01:18:07.158Z,53
2022-10-05T01:18:39.018Z,53
2022-10-05T01:19:23.032Z,53
2022-10-05T01:19:54.876Z,53
2022-10-05T01:20:27.292Z,53
2022-10-05T01:20:58.856Z,53
2022-10-05T01:21:30.896Z,53
2022-10-05T01:22:03.566Z,53
2022-10-05T01:22:34.739Z,53
2022-10-05T01:22:51.013Z,53
2022-10-05T01:23:35.074Z,53
2022-10-05T01:24:06.931Z,53
2022-10-05T01:24:38.706Z,53
2022-10-05T01:24:54.956Z,53
2022-10-05T01:25:38.860Z,53
2022-10-05T01:26:10.583Z,53
2022-10-05T01:26:43.007Z,53
2022-10-05T01:27:14.670Z,53
2022-10-05T01:27:46.558Z,53
2022-10-05T01:28:18.681Z,53
2022-10-05T01:28:50.563Z,53
2022-10-05T01:29:22.517Z,53
2022-10-05T01:29:38.541Z,53
2022-10-05T01:30:11.435Z,53
2022-10-05T01:30:54.705Z,53
2022-10-05T01:31:26.766Z,53
2022-10-05T01:31:58.388Z,53
2022-10-05T01:32:30.415Z,53
2022-10-05T01:33:03.563Z,53
2022-10-05T01:33:34.469Z,53
2022-10-05T01:34:11.212Z,53
2022-10-05T01:34:22.404Z,53
2022-10-05T01:35:06.576Z,53
2022-10-05T01:35:22.366Z,53
2022-10-05T01:36:06.553Z,53
2022-10-05T01:36:38.498Z,53
2022-10-05T01:37:10.115Z,53
2022-10-05T01:37:42.376Z,53
2022-10-05T01:38:14.515Z,53
2022-10-05T01:38:46.329Z,53
2022-10-05T01:39:18.137Z,53
2022-10-05T01:39:50.105Z,53
2022-10-05T01:40:22.462Z,53
2022-10-05T01:40:54.384Z,53
2022-10-05T01:41:26.187Z,53
2022-10-05T01:41:58.011Z,53
2022-10-05T01:42:30.056Z,53
2022-10-05T01:43:03.066Z,53
2022-10-05T01:43:34.081Z,53
2022-10-05T01:43:49.986Z,53
2022-10-05T01:44:33.939Z,53
2022-10-05T01:45:07.184Z,53
2022-10-05T01:45:38.017Z,53
2022-10-05T01:46:09.807Z,53
2022-10-05T01:46:41.842Z,53
2022-10-05T01:47:13.757Z,53
2022-10-05T01:47:46.126Z,53
2022-10-05T01:48:17.706Z,53
2022-10-05T01:48:49.655Z,53
2022-10-05T01:49:21.794Z,53
2022-10-05T01:49:53.653Z,53
2022-10-05T01:50:25.847Z,53
2022-10-05T01:50:57.822Z,53
2022-10-05T01:51:29.628Z,53
2022-10-05T01:52:01.622Z,53
2022-10-05T01:52:33.547Z,53
2022-10-05T01:52:49.596Z,53
2022-10-05T01:53:21.568Z,53
2022-10-05T01:53:37.534Z,53
2022-10-05T01:54:09.387Z,53
2022-10-05T01:54:41.410Z,53
2022-10-05T01:55:13.643Z,53
2022-10-05T01:55:45.583Z,53
2022-10-05T01:56:17.347Z,53
2022-10-05T01:56:49.526Z,53
2022-10-05T01:57:05.707Z,53
2022-10-05T01:57:37.311Z,53
2022-10-05T01:58:21.548Z,53
2022-10-05T01:58:53.179Z,53
2022-10-05T01:59:25.312Z,53
2022-10-05T01:59:57.482Z,53
2022-10-05T02:00:29.618Z,53
2022-10-05T02:01:01.348Z,53
2022-10-05T02:01:33.322Z,53
2022-10-05T02:02:05.469Z,53
2022-10-05T02:02:37.232Z,53
2022-10-05T02:03:09.143Z,53
2022-10-05T02:03:41.004Z,53
2022-10-05T02:04:24.417Z,53
2022-10-05T02:05:01.395Z,53
2022-10-05T02:05:17.241Z,53
2022-10-05T02:05:49.003Z,53
2022-10-05T02:06:05.385Z,53
2022-10-05T02:06:49.242Z,53
2022-10-05T02:07:21.131Z,53
2022-10-05T02:07:52.776Z,53
2022-10-05T02:08:24.971Z,53
2022-10-05T02:08:57.006Z,53
2022-10-05T02:09:28.794Z,53
2022-10-05T02:10:01.197Z,53
2022-10-05T02:10:32.828Z,53
2022-10-05T02:11:05.283Z,53
2022-10-05T02:11:37.084Z,53
2022-10-05T02:12:08.708Z,53
2022-10-05T02:12:40.660Z,53
2022-10-05T02:13:12.734Z,53
2022-10-05T02:13:45.007Z,53
2022-10-05T02:14:16.546Z,53
2022-10-05T02:14:48.638Z,53
2022-10-05T02:15:21.156Z,53
2022-10-05T02:15:52.655Z,53
2022-10-05T02:16:24.851Z,53
2022-10-05T02:16:56.636Z,53
2022-10-05T02:17:28.514Z,53
2022-10-05T02:18:00.497Z,53
2022-10-05T02:18:32.440Z,53
2022-10-05T02:18:48.615Z,53
2022-10-05T02:19:32.423Z,53
2022-10-05T02:20:05.457Z,53
2022-10-05T02:20:36.700Z,53
2022-10-05T02:21:08.289Z,53
2022-10-05T02:21:40.318Z,53
2022-10-05T02:22:12.465Z,53
2022-10-05T02:22:44.468Z,53
2022-10-05T02:23:16.296Z,53
2022-10-05T02:23:48.339Z,53
2022-10-05T02:24:20.295Z,53
2022-10-05T02:24:52.344Z,53
2022-10-05T02:25:24.491Z,53
2022-10-05T02:25:56.070Z,53
2022-10-05T02:26:28.286Z,53
2022-10-05T02:27:00.180Z,53
2022-10-05T02:27:32.023Z,53
2022-10-05T02:27:48.203Z,53
2022-10-05T02:28:20.042Z,53
2022-10-05T02:28:36.422Z,53
2022-10-05T02:29:08.046Z,53
2022-10-05T02:29:39.995Z,53
2022-10-05T02:30:16.499Z,53
2022-10-05T02:30:43.898Z,53
2022-10-05T02:31:16.332Z,53
2022-10-05T02:31:47.980Z,53
2022-10-05T02:32:04.735Z,53
2022-10-05T02:32:36.242Z,53
2022-10-05T02:33:19.759Z,53
2022-10-05T02:33:52.021Z,53
2022-10-05T02:34:23.913Z,53
2022-10-05T02:34:55.921Z,53
2022-10-05T02:35:28.337Z,53
2022-10-05T02:35:59.830Z,53
2022-10-05T02:36:31.715Z,53
2022-10-05T02:36:48.101Z,53
2022-10-05T02:37:31.721Z,53
2022-10-05T02:38:04.470Z,53
2022-10-05T02:38:35.750Z,53
2022-10-05T02:39:07.610Z,53
2022-10-05T02:39:39.707Z,53
2022-10-05T02:40:11.769Z,53
2022-10-05T02:40:43.662Z,53
2022-10-05T02:41:15.620Z,53
2022-10-05T02:41:47.547Z,53
2022-10-05T02:42:19.464Z,53
2022-10-05T02:42:51.613Z,53
2022-10-05T02:43:23.338Z,53
2022-10-05T02:43:55.692Z,53
2022-10-05T02:44:27.594Z,53
2022-10-05T02:44:59.132Z,53
2022-10-05T02:45:31.795Z,53
2022-10-05T02:46:04.253Z,53
2022-10-05T02:46:35.501Z,53
2022-10-05T02:47:07.452Z,53
2022-10-05T02:47:39.241Z,53
2022-10-05T02:48:11.247Z,53
2022-10-05T02:48:43.342Z,53
2022-10-05T02:49:15.166Z,53
2022-10-05T02:49:47.133Z,53
2022-10-05T02:50:04.376Z,53
2022-10-05T02:50:35.012Z,53
2022-10-05T02:51:19.240Z,53
2022-10-05T02:51:51.108Z,53
2022-10-05T02:52:23.013Z,53
2022-10-05T02:52:55.346Z,53
2022-10-05T02:53:27.306Z,53
2022-10-05T02:53:58.895Z,53
2022-10-05T02:54:31.033Z,53
2022-10-05T02:54:47.219Z,53
2022-10-05T02:55:31.179Z,53
2022-10-05T02:56:03.843Z,53
2022-10-05T02:56:34.843Z,53
2022-10-05T02:57:06.935Z,53
2022-10-05T02:57:38.924Z,53
2022-10-05T02:58:10.685Z,53
2022-10-05T02:58:42.878Z,53
2022-10-05T02:59:14.909Z,53
2022-10-05T02:59:46.847Z,53
2022-10-05T03:00:19.160Z,53
2022-10-05T03:00:50.629Z,53
2022-10-05T03:01:22.801Z,53
2022-10-05T03:01:55.012Z,53
2022-10-05T03:02:26.909Z,53
2022-10-05T03:02:58.565Z,53
2022-10-05T03:03:30.578Z,53
2022-10-05T03:04:04.273Z,53
2022-10-05T03:04:34.725Z,53
2022-10-05T03:05:06.950Z,53
2022-10-05T03:05:38.484Z,53
2022-10-05T03:06:10.566Z,53
2022-10-05T03:06:42.656Z,53
2022-10-05T03:07:14.473Z,53
2022-10-05T03:07:46.419Z,53
2022-10-05T03:08:18.519Z,53
2022-10-05T03:08:50.192Z,53
2022-10-05T03:09:22.460Z,53
2022-10-05T03:09:58.823Z,53
2022-10-05T03:10:26.580Z,53
2022-10-05T03:10:58.347Z,53
2022-10-05T03:11:30.105Z,53
2022-10-05T03:12:02.420Z,53
2022-10-05T03:12:34.386Z,53
2022-10-05T03:13:06.347Z,53
2022-10-05T03:13:38.241Z,53
2022-10-05T03:14:10.168Z,53
2022-10-05T03:14:42.206Z,53
2022-10-05T03:15:16.090Z,53
2022-10-05T03:15:46.232Z,53
2022-10-05T03:16:02.514Z,53
2022-10-05T03:16:46.415Z,53
2022-10-05T03:17:18.219Z,53
2022-10-05T03:17:50.108Z,53
2022-10-05T03:18:22.083Z,53
2022-10-05T03:18:54.188Z,53
2022-10-05T03:19:25.985Z,53
2022-10-05T03:19:58.048Z,53
2022-10-05T03:20:30.051Z,53
2022-10-05T03:20:46.213Z,53
2022-10-05T03:21:17.850Z,53
2022-10-05T03:21:34.065Z,53
2022-10-05T03:22:06.291Z,53
2022-10-05T03:22:37.917Z,53
2022-10-05T03:23:09.865Z,53
2022-10-05T03:23:41.755Z,53
2022-10-05T03:24:13.881Z,53
2022-10-05T03:24:45.798Z,53
2022-10-05T03:25:02.457Z,53
2022-10-05T03:25:33.618Z,53
2022-10-05T03:26:17.725Z,53
2022-10-05T03:26:49.740Z,53
2022-10-05T03:27:21.687Z,53
2022-10-05T03:27:53.560Z,53
2022-10-05T03:28:25.774Z,53
2022-10-05T03:28:57.519Z,53
2022-10-05T03:29:29.381Z,53
2022-10-05T03:29:45.790Z,53
2022-10-05T03:30:29.808Z,53
2022-10-05T03:31:01.951Z,53
2022-10-05T03:31:33.443Z,53
2022-10-05T03:32:05.696Z,53
2022-10-05T03:32:37.671Z,53
2022-10-05T03:33:09.440Z,53
2022-10-05T03:33:41.250Z,53
2022-10-05T03:34:13.284Z,53
2022-10-05T03:34:45.451Z,53
2022-10-05T03:35:19.460Z,53
2022-10-05T03:35:49.187Z,53
2022-10-05T03:36:21.123Z,53
2022-10-05T03:36:53.215Z,53
2022-10-05T03:37:25.416Z,53
2022-10-05T03:37:57.308Z,53
2022-10-05T03:38:29.086Z,53
2022-10-05T03:38:45.386Z,53
2022-10-05T03:39:17.203Z,53
2022-10-05T03:39:33.149Z,53
2022-10-05T03:40:05.764Z,53
2022-10-05T03:40:37.238Z,53
2022-10-05T03:41:09.072Z,53
2022-10-05T03:41:41.049Z,53
2022-10-05T03:42:13.101Z,53
2022-10-05T03:42:44.960Z,53
2022-10-05T03:43:01.161Z,53
2022-10-05T03:43:32.872Z,53
2022-10-05T03:44:23.812Z,53
2022-10-05T03:44:48.785Z,53
2022-10-05T03:45:21.107Z,53
2022-10-05T03:45:52.971Z,53
2022-10-05T03:46:25.079Z,53
2022-10-05T03:46:56.988Z,53
2022-10-05T03:47:28.800Z,53
2022-10-05T03:48:01.696Z,53
2022-10-05T03:48:32.772Z,53
2022-10-05T03:49:05.194Z,53
2022-10-05T03:49:36.744Z,53
2022-10-05T03:50:08.805Z,53
2022-10-05T03:50:40.787Z,53
2022-10-05T03:51:12.780Z,53
2022-10-05T03:51:44.468Z,53
2022-10-05T03:52:00.710Z,53
2022-10-05T03:52:44.463Z,53
2022-10-05T03:53:16.679Z,53
2022-10-05T03:53:48.457Z,53
2022-10-05T03:54:26.060Z,53
2022-10-05T03:54:52.508Z,53
2022-10-05T03:55:25.023Z,53
2022-10-05T03:55:56.878Z,53
2022-10-05T03:56:29.111Z,53
2022-10-05T03:56:45.870Z,53
2022-10-05T03:57:16.464Z,53
2022-10-05T03:57:32.476Z,53
2022-10-05T03:58:04.819Z,53
2022-10-05T03:58:36.314Z,53
2022-10-05T03:59:08.457Z,53
2022-10-05T03:59:40.356Z,53
2022-10-05T04:00:13.028Z,53
2022-10-05T04:00:44.240Z,53
2022-10-05T04:01:00.316Z,53
2022-10-05T04:01:32.316Z,53
2022-10-05T04:02:16.640Z,53
2022-10-05T04:02:48.242Z,53
2022-10-05T04:03:20.126Z,53
2022-10-05T04:03:52.213Z,53
2022-10-05T04:04:24.430Z,53
2022-10-05T04:04:56.234Z,53
2022-10-05T04:05:28.338Z,53
2022-10-05T04:05:44.320Z,53
2022-10-05T04:06:27.987Z,53
2022-10-05T04:07:00.012Z,53
2022-10-05T04:07:31.916Z,53
2022-10-05T04:08:04.644Z,53
2022-10-05T04:08:35.967Z,53
2022-10-05T04:09:08.141Z,53
2022-10-05T04:09:39.779Z,53
2022-10-05T04:10:11.987Z,53
2022-10-05T04:10:44.033Z,53
2022-10-05T04:11:16.037Z,53
2022-10-05T04:11:47.813Z,53
2022-10-05T04:12:19.709Z,53
2022-10-05T04:12:51.764Z,53
2022-10-05T04:13:23.924Z,53
2022-10-05T04:13:55.856Z,53
2022-10-05T04:14:27.575Z,53
2022-10-05T04:14:59.626Z,53
2022-10-05T04:15:37.167Z,53
2022-10-05T04:16:04.290Z,53
2022-10-05T04:16:35.625Z,53
2022-10-05T04:17:07.586Z,53
2022-10-05T04:17:39.616Z,53
2022-10-05T04:18:11.559Z,53
2022-10-05T04:18:43.545Z,53
2022-10-05T04:19:15.637Z,53
2022-10-05T04:19:47.649Z,53
2022-10-05T04:20:19.635Z,53
2022-10-05T04:20:51.278Z,53
2022-10-05T04:21:23.933Z,53
2022-10-05T04:21:55.523Z,53
2022-10-05T04:22:27.227Z,53
2022-10-05T04:22:59.267Z,53
2022-10-05T04:23:31.290Z,53
2022-10-05T04:24:03.810Z,53
2022-10-05T04:24:35.417Z,53
2022-10-05T04:25:07.481Z,53
2022-10-05T04:25:39.170Z,53
2022-10-05T04:26:11.236Z,53
2022-10-05T04:26:43.488Z,53
2022-10-05T04:26:59.160Z,53
2022-10-05T04:27:43.318Z,53
2022-10-05T04:28:15.252Z,53
2022-10-05T04:28:47.459Z,53
2022-10-05T04:29:19.003Z,53
2022-10-05T04:29:50.998Z,53
2022-10-05T04:30:28.357Z,53
2022-10-05T04:30:55.186Z,53
2022-10-05T04:31:27.019Z,53
2022-10-05T04:31:43.246Z,53
2022-10-05T04:32:14.851Z,53
2022-10-05T04:32:30.938Z,53
2022-10-05T04:33:03.962Z,53
2022-10-05T04:33:34.966Z,53
2022-10-05T04:34:06.922Z,53
2022-10-05T04:34:38.806Z,53
2022-10-05T04:35:11.128Z,53
2022-10-05T04:35:42.831Z,53
2022-10-05T04:35:59.044Z,53
2022-10-05T04:36:30.860Z,53
2022-10-05T04:37:14.913Z,53
2022-10-05T04:37:47.074Z,53
2022-10-05T04:38:18.475Z,53
2022-10-05T04:38:50.617Z,53
2022-10-05T04:39:22.784Z,53
2022-10-05T04:39:54.793Z,53
2022-10-05T04:40:27.829Z,53
2022-10-05T04:40:42.632Z,53
2022-10-05T04:41:26.595Z,53
2022-10-05T04:41:58.523Z,53
2022-10-05T04:42:30.456Z,53
2022-10-05T04:43:03.243Z,53
2022-10-05T04:43:23.696Z,53
2022-10-05T04:43:50.279Z,53
2022-10-05T04:44:34.504Z,53
2022-10-05T04:45:07.627Z,53
2022-10-05T04:45:38.287Z,53
2022-10-05T04:46:10.343Z,53
2022-10-05T04:46:42.396Z,53
2022-10-05T04:47:14.558Z,53
2022-10-05T04:47:46.321Z,53
2022-10-05T04:48:18.235Z,53
2022-10-05T04:48:50.261Z,53
2022-10-05T04:49:22.316Z,53
2022-10-05T04:49:54.287Z,53
2022-10-05T04:50:26.675Z,53
2022-10-05T04:50:58.193Z,53
2022-10-05T04:51:30.137Z,53
2022-10-05T04:52:02.687Z,53
2022-10-05T04:52:34.272Z,53
2022-10-05T04:53:06.158Z,53
2022-10-05T04:53:38.097Z,53
2022-10-05T04:54:09.937Z,53
2022-10-05T04:54:42.006Z,53
2022-10-05T04:55:14.293Z,53
2022-10-05T04:55:46.159Z,53
2022-10-05T04:56:18.146Z,53
2022-10-05T04:56:50.080Z,53
2022-10-05T04:57:21.923Z,53
2022-10-05T04:57:53.951Z,53
2022-10-05T04:58:26.040Z,53
2022-10-05T04:58:42.595Z,53
2022-10-05T04:59:25.992Z,53
2022-10-05T04:59:57.782Z,53
2022-10-05T05:00:30.968Z,53
2022-10-05T05:01:02.396Z,53
2022-10-05T05:01:33.643Z,53
2022-10-05T05:02:05.987Z,53
2022-10-05T05:02:37.769Z,53
2022-10-05T05:03:09.600Z,53
2022-10-05T05:03:41.630Z,53
2022-10-05T05:04:13.725Z,53
2022-10-05T05:04:50.818Z,53
2022-10-05T05:05:17.839Z,53
2022-10-05T05:06:15.503Z,53
2022-10-05T05:06:21.531Z,53
2022-10-05T05:06:53.621Z,53
2022-10-05T05:07:25.445Z,53
2022-10-05T05:07:41.634Z,53
2022-10-05T05:08:13.446Z,53
2022-10-05T05:08:29.522Z,53
2022-10-05T05:09:02.028Z,53
2022-10-05T05:09:33.251Z,53
2022-10-05T05:10:05.953Z,53
2022-10-05T05:10:37.388Z,53
2022-10-05T05:11:12.449Z,53
2022-10-05T05:11:41.289Z,53
2022-10-05T05:11:57.296Z,53
2022-10-05T05:12:29.062Z,53
2022-10-05T05:13:13.344Z,53
2022-10-05T05:13:45.295Z,53
2022-10-05T05:14:17.578Z,53
2022-10-05T05:14:49.125Z,53
2022-10-05T05:15:21.573Z,53
2022-10-05T05:15:53.323Z,53
2022-10-05T05:16:25.233Z,53
2022-10-05T05:16:41.261Z,53
2022-10-05T05:17:25.132Z,53
2022-10-05T05:17:57.053Z,53
2022-10-05T05:18:28.931Z,53
2022-10-05T05:19:00.896Z,53
2022-10-05T05:19:32.962Z,53
2022-10-05T05:20:05.571Z,53
2022-10-05T05:20:37.011Z,53
2022-10-05T05:21:08.789Z,53
2022-10-05T05:21:40.864Z,53
2022-10-05T05:22:12.857Z,53
2022-10-05T05:22:45.027Z,53
2022-10-05T05:23:16.945Z,53
2022-10-05T05:23:48.707Z,53
2022-10-05T05:24:20.781Z,53
2022-10-05T05:24:52.848Z,53
2022-10-05T05:25:24.838Z,53
2022-10-05T05:25:40.878Z,53
2022-10-05T05:26:12.578Z,53
2022-10-05T05:26:28.745Z,53
2022-10-05T05:27:00.654Z,53
2022-10-05T05:27:32.561Z,53
2022-10-05T05:28:05.342Z,53
2022-10-05T05:28:36.643Z,53
2022-10-05T05:29:08.789Z,53
2022-10-05T05:29:40.513Z,53
2022-10-05T05:29:56.925Z,53
2022-10-05T05:30:28.712Z,53
2022-10-05T05:31:12.703Z,53
2022-10-05T05:31:44.865Z,53
2022-10-05T05:32:16.700Z,53
2022-10-05T05:32:48.560Z,53
2022-10-05T05:33:20.655Z,53
2022-10-05T05:33:52.583Z,53
2022-10-05T05:34:24.649Z,53
2022-10-05T05:34:40.857Z,53
2022-10-05T05:35:24.830Z,53
2022-10-05T05:35:56.558Z,53
2022-10-05T05:36:28.148Z,53
2022-10-05T05:37:00.401Z,53
2022-10-05T05:37:32.332Z,53
2022-10-05T05:38:04.729Z,53
2022-10-05T05:38:36.276Z,53
2022-10-05T05:39:08.229Z,53
2022-10-05T05:39:40.281Z,53
2022-10-05T05:40:12.643Z,53
2022-10-05T05:40:44.304Z,53
2022-10-05T05:41:16.263Z,53
2022-10-05T05:41:48.243Z,53
2022-10-05T05:42:20.207Z,53
2022-10-05T05:42:52.237Z,53
2022-10-05T05:43:24.173Z,53
2022-10-05T05:43:40.260Z,53
2022-10-05T05:44:12.027Z,53
2022-10-05T05:44:28.106Z,53
2022-10-05T05:45:00.165Z,53
2022-10-05T05:45:32.343Z,53
2022-10-05T05:46:04.309Z,53
2022-10-05T05:47:01.668Z,53
2022-10-05T05:47:08.505Z,53
2022-10-05T05:47:39.995Z,53
2022-10-05T05:47:56.279Z,53
2022-10-05T05:48:27.871Z,53
2022-10-05T05:49:12.125Z,53
2022-10-05T05:49:43.850Z,53
2022-10-05T05:50:16.090Z,53
2022-10-05T05:50:47.874Z,53
2022-10-05T05:51:19.847Z,53
2022-10-05T05:51:51.749Z,53
2022-10-05T05:52:23.834Z,53
2022-10-05T05:52:40.026Z,53
2022-10-05T05:53:23.752Z,53
2022-10-05T05:53:55.955Z,53
2022-10-05T05:54:27.726Z,53
2022-10-05T05:54:59.601Z,53
2022-10-05T05:55:31.873Z,53
2022-10-05T05:56:04.270Z,53
2022-10-05T05:56:35.578Z,53
2022-10-05T05:57:07.475Z,53
2022-10-05T05:57:39.586Z,53
2022-10-05T05:58:11.634Z,53
2022-10-05T05:58:43.305Z,53
2022-10-05T05:59:15.549Z,53
2022-10-05T05:59:47.595Z,53
2022-10-05T06:00:19.993Z,53
2022-10-05T06:00:51.364Z,53
2022-10-05T06:01:32.742Z,53
2022-10-05T06:01:44.200Z,53
2022-10-05T06:02:11.568Z,53
2022-10-05T06:02:27.634Z,53
2022-10-05T06:02:59.545Z,53
2022-10-05T06:03:31.093Z,53
2022-10-05T06:04:04.003Z,53
2022-10-05T06:04:35.423Z,53
2022-10-05T06:05:07.477Z,53
2022-10-05T06:05:39.166Z,53
2022-10-05T06:05:55.606Z,53
2022-10-05T06:06:27.225Z,53
2022-10-05T06:07:11.217Z,53
2022-10-05T06:07:42.989Z,53
2022-10-05T06:08:15.302Z,53
2022-10-05T06:08:47.231Z,53
2022-10-05T06:09:19.012Z,53
2022-10-05T06:09:51.136Z,53
2022-10-05T06:10:23.249Z,53
2022-10-05T06:10:38.993Z,53
2022-10-05T06:11:22.999Z,53
2022-10-05T06:11:55.069Z,53
2022-10-05T06:12:27.074Z,53
2022-10-05T06:13:01.720Z,53
2022-10-05T06:13:30.875Z,53
2022-10-05T06:14:03.682Z,53
2022-10-05T06:14:38.649Z,53
2022-10-05T06:15:07.710Z,53
2022-10-05T06:15:38.850Z,53
2022-10-05T06:16:10.833Z,53
2022-10-05T06:16:43.103Z,53
2022-10-05T06:17:14.828Z,53
2022-10-05T06:17:46.600Z,53
2022-10-05T06:18:18.877Z,53
2022-10-05T06:18:50.811Z,53
2022-10-05T06:19:22.564Z,53
2022-10-05T06:19:54.915Z,53
2022-10-05T06:20:27.101Z,53
2022-10-05T06:20:58.679Z,53
2022-10-05T06:21:30.555Z,53
2022-10-05T06:22:03.347Z,53
2022-10-05T06:22:34.525Z,53
2022-10-05T06:23:06.587Z,53
2022-10-05T06:23:38.363Z,53
2022-10-05T06:23:54.770Z,53
2022-10-05T06:24:26.818Z,53
2022-10-05T06:25:10.652Z,53
2022-10-05T06:25:42.505Z,53
2022-10-05T06:26:14.320Z,53
2022-10-05T06:26:46.604Z,53
2022-10-05T06:27:18.382Z,62
2022-10-05T06:27:50.318Z,62
2022-10-05T06:28:22.279Z,62
2022-10-05T06:28:54.405Z,62
2022-10-05T06:29:26.582Z,62
2022-10-05T06:29:58.275Z,62
2022-10-05T06:30:34.260Z,62
2022-10-05T06:31:02.733Z,62
2022-10-05T06:31:34.217Z,62
2022-10-05T06:32:06.569Z,62
2022-10-05T06:32:38.019Z,61
2022-10-05T06:32:54.328Z,61
2022-10-05T06:33:38.080Z,61
2022-10-05T06:34:10.143Z,62
2022-10-05T06:34:42.271Z,62
2022-10-05T06:35:14.289Z,62
2022-10-05T06:35:46.281Z,62
2022-10-05T06:36:18.249Z,62
2022-10-05T06:36:50.005Z,62
2022-10-05T06:37:21.922Z,62
2022-10-05T06:37:54.001Z,62
2022-10-05T06:38:26.154Z,62
2022-10-05T06:38:58.233Z,62
2022-10-05T06:39:29.844Z,62
2022-10-05T06:40:02.922Z,61
2022-10-05T06:40:33.888Z,61
2022-10-05T06:41:05.924Z,61
2022-10-05T06:41:37.747Z,62
2022-10-05T06:42:09.867Z,61
2022-10-05T06:42:41.875Z,62
2022-10-05T06:43:13.822Z,62
2022-10-05T06:43:46.044Z,62
2022-10-05T06:44:17.855Z,62
2022-10-05T06:44:49.553Z,62
2022-10-05T06:45:23.615Z,62
2022-10-05T06:45:53.896Z,62
2022-10-05T06:46:25.701Z,62
2022-10-05T06:46:57.601Z,62
2022-10-05T06:47:29.531Z,63
2022-10-05T06:48:05.328Z,63
2022-10-05T06:48:33.411Z,75
2022-10-05T06:49:05.789Z,75
2022-10-05T06:49:37.512Z,77
2022-10-05T06:50:09.769Z,78
2022-10-05T06:50:41.353Z,78
2022-10-05T06:51:13.332Z,77
2022-10-05T06:51:45.575Z,78
2022-10-05T06:52:17.664Z,77
2022-10-05T06:52:49.212Z,83
2022-10-05T06:53:21.336Z,83
2022-10-05T06:53:53.255Z,83
2022-10-05T06:54:25.675Z,83
2022-10-05T06:54:57.105Z,83
2022-10-05T06:55:29.286Z,83
2022-10-05T06:56:01.430Z,83
2022-10-05T06:56:33.301Z,84
2022-10-05T06:57:05.314Z,84
2022-10-05T06:57:37.234Z,82
2022-10-05T06:58:09.191Z,88
2022-10-05T06:58:40.925Z,92
2022-10-05T06:59:13.073Z,93
2022-10-05T06:59:45.144Z,92
2022-10-05T07:00:18.172Z,88
2022-10-05T07:00:48.965Z,89
2022-10-05T07:01:21.002Z,89
2022-10-05T07:01:53.017Z,97
2022-10-05T07:02:25.057Z,98
2022-10-05T07:02:56.838Z,101
2022-10-05T07:03:28.790Z,101
2022-10-05T07:04:01.024Z,100
2022-10-05T07:04:36.733Z,100
2022-10-05T07:05:05.449Z,100
2022-10-05T07:05:37.038Z,100
2022-10-05T07:06:08.841Z,100
2022-10-05T07:06:40.537Z,100
2022-10-05T07:07:12.635Z,100
2022-10-05T07:07:44.773Z,100
2022-10-05T07:08:16.762Z,100
2022-10-05T07:08:48.616Z,100
2022-10-05T07:09:20.362Z,100
2022-10-05T07:09:36.929Z,100
2022-10-05T07:10:08.701Z,100
2022-10-05T07:10:24.923Z,100
2022-10-05T07:10:56.851Z,100
2022-10-05T07:11:28.738Z,100
2022-10-05T07:12:04.859Z,100
2022-10-05T07:12:32.547Z,100
2022-10-05T07:13:05.197Z,100
2022-10-05T07:13:36.629Z,100
2022-10-05T07:13:52.527Z,100
2022-10-05T07:14:24.642Z,100
2022-10-05T07:15:09.354Z,100
2022-10-05T07:15:40.113Z,100
2022-10-05T07:16:12.440Z,100
2022-10-05T07:16:44.328Z,100
2022-10-05T07:17:16.398Z,100
2022-10-05T07:17:48.187Z,100
2022-10-05T07:18:20.061Z,100
2022-10-05T07:18:52.319Z,100
2022-10-05T07:19:24.334Z,93
2022-10-05T07:19:56.149Z,96
2022-10-05T07:20:33.213Z,92
2022-10-05T07:21:00.111Z,91
2022-10-05T07:21:37.098Z,91
2022-10-05T07:22:04.683Z,97
2022-10-05T07:22:36.002Z,101
2022-10-05T07:22:52.128Z,100
2022-10-05T07:23:36.265Z,100
2022-10-05T07:24:07.990Z,101
2022-10-05T07:24:39.854Z,101
2022-10-05T07:25:12.118Z,100